Time;durP1;ratioP1;P1;durP2;ratioP2;P2;SDS_P1;SDS_P2;PMS_P1;PMS_P2;Temp;Humidity;BMP_temperature;BMP_pressure;BME280_temperature;BME280_humidity;BME280_pressure;Samples;Min_cycle;Max_cycle;Signal;HPM_P1;HPM_P2
2024/01/18 00:01:52;;;;;;;0.52;0.52;;;;;;;-2.57;100.00;99223.03;5095140;28;20549;-56
2024/01/18 00:04:17;;;;;;;0.60;0.60;;;;;;;-2.57;100.00;99221.38;5094235;28;20028;-56
2024/01/18 00:06:42;;;;;;;0.43;0.43;;;;;;;-2.52;100.00;99220.00;5095332;28;20528;-56
2024/01/18 00:09:07;;;;;;;0.65;0.65;;;;;;;-2.54;100.00;99219.03;5095136;28;20356;-56
2024/01/18 00:11:33;;;;;;;0.60;0.60;;;;;;;-2.50;100.00;99232.69;5093764;28;20038;-56
2024/01/18 00:14:00;;;;;;;0.55;0.55;;;;;;;-2.56;100.00;99227.28;5095024;28;20425;-56
2024/01/18 00:16:25;;;;;;;0.60;0.60;;;;;;;-2.56;100.00;99237.38;5094651;28;20081;-56
2024/01/18 00:18:51;;;;;;;0.70;0.70;;;;;;;-2.59;100.00;99242.25;5094355;28;20020;-56
2024/01/18 00:21:16;;;;;;;0.60;0.60;;;;;;;-2.59;100.00;99240.59;5094745;28;20024;-56
2024/01/18 00:23:41;;;;;;;0.60;0.60;;;;;;;-2.58;100.00;99254.06;5094397;28;20432;-56
2024/01/18 00:26:07;;;;;;;0.50;0.50;;;;;;;-2.60;100.00;99258.19;5093970;28;20073;-56
2024/01/18 00:28:32;;;;;;;0.55;0.55;;;;;;;-2.59;100.00;99259.91;5094317;28;20491;-56
2024/01/18 00:30:57;;;;;;;0.60;0.60;;;;;;;-2.60;100.00;99256.50;5093991;28;20024;-56
2024/01/18 00:33:25;;;;;;;0.55;0.55;;;;;;;-2.59;100.00;99257.41;5093646;28;20032;-56
2024/01/18 00:35:50;;;;;;;0.60;0.60;;;;;;;-2.57;100.00;99255.81;5094687;28;20024;-56
2024/01/18 00:38:15;;;;;;;0.60;0.60;;;;;;;-2.53;100.00;99257.72;5094237;28;20517;-56
2024/01/18 00:40:41;;;;;;;0.60;0.60;;;;;;;-2.54;100.00;99256.00;5093781;28;20035;-56
2024/01/18 00:43:07;;;;;;;0.60;0.60;;;;;;;-2.57;100.00;99255.81;5094206;28;20048;-56
2024/01/18 00:45:32;;;;;;;0.70;0.70;;;;;;;-2.58;100.00;99265.03;5093929;28;20054;-56
2024/01/18 00:47:57;;;;;;;0.52;0.52;;;;;;;-2.55;100.00;99269.41;5093620;28;20020;-56
2024/01/18 00:50:23;;;;;;;0.60;0.60;;;;;;;-2.45;100.00;99263.19;5093936;28;20041;-56
2024/01/18 00:52:48;;;;;;;0.60;0.60;;;;;;;-2.58;100.00;99260.00;5094312;28;20081;-56
2024/01/18 00:55:13;;;;;;;0.57;0.57;;;;;;;-2.59;100.00;99267.50;5093315;28;20081;-56
2024/01/18 00:57:39;;;;;;;0.50;0.50;;;;;;;-2.57;100.00;99268.44;5094025;28;20036;-56
2024/01/18 01:00:05;;;;;;;0.70;0.70;;;;;;;-2.60;100.00;99269.13;5093224;28;20053;-56
2024/01/18 01:02:30;;;;;;;0.60;0.60;;;;;;;-2.66;100.00;99277.22;5093912;28;20115;-56
2024/01/18 01:04:56;;;;;;;0.57;0.57;;;;;;;-2.65;100.00;99278.09;5094106;28;20077;-56
2024/01/18 01:07:21;;;;;;;0.60;0.60;;;;;;;-2.65;100.00;99289.06;5093049;28;20040;-56
2024/01/18 01:09:46;;;;;;;0.60;0.60;;;;;;;-2.67;100.00;99288.09;5093981;28;20471;-56
2024/01/18 01:12:11;;;;;;;0.60;0.60;;;;;;;-2.70;100.00;99287.94;5093533;28;20020;-56
2024/01/18 01:14:37;;;;;;;0.60;0.60;;;;;;;-2.73;100.00;99297.81;5092006;28;20487;-56
2024/01/18 01:17:02;;;;;;;0.60;0.60;;;;;;;-2.71;100.00;99302.94;5093604;28;20028;-56
2024/01/18 01:19:27;;;;;;;0.60;0.60;;;;;;;-2.70;100.00;99292.09;5093123;28;20020;-56
2024/01/18 01:21:53;;;;;;;0.60;0.60;;;;;;;-2.72;100.00;99294.53;5092939;28;20066;-58
2024/01/18 01:24:18;;;;;;;0.50;0.50;;;;;;;-2.78;100.00;99290.78;5093467;28;20048;-56
2024/01/18 01:26:43;;;;;;;0.52;0.52;;;;;;;-2.86;100.00;99302.94;5093871;28;20032;-56
2024/01/18 01:29:10;;;;;;;0.60;0.60;;;;;;;-2.86;100.00;99305.47;5092685;28;20035;-56
2024/01/18 01:31:35;;;;;;;0.60;0.60;;;;;;;-2.86;100.00;99302.94;5093698;28;20031;-56
2024/01/18 01:34:01;;;;;;;0.57;0.57;;;;;;;-2.83;100.00;99298.06;5092816;28;20024;-56
2024/01/18 01:36:26;;;;;;;0.50;0.50;;;;;;;-2.89;100.00;99295.19;5092531;28;20106;-56
2024/01/18 01:38:51;;;;;;;0.50;0.50;;;;;;;-2.94;100.00;99311.69;5093295;28;20020;-56
2024/01/18 01:41:17;;;;;;;0.70;0.70;;;;;;;-2.98;100.00;99305.63;5093032;28;20040;-56
2024/01/18 01:44:01;;;;;;;0.60;0.60;;;;;;;-2.99;100.00;99312.31;5092475;28;20032;-56
2024/01/18 01:46:27;;;;;;;0.70;0.70;;;;;;;-2.87;100.00;99326.41;5092975;28;20024;-56
2024/01/18 01:48:57;;;;;;;0.50;0.50;;;;;;;-3.04;100.00;99323.75;5093231;28;20395;-56
2024/01/18 01:51:22;;;;;;;0.60;0.60;;;;;;;-3.06;100.00;99320.31;5092275;28;20141;-56
2024/01/18 01:53:48;;;;;;;0.57;0.57;;;;;;;-3.09;100.00;99324.28;5093126;28;20533;-56
2024/01/18 01:56:13;;;;;;;0.68;0.68;;;;;;;-3.04;100.00;99328.81;5091907;28;20447;-56
2024/01/18 01:58:39;;;;;;;0.60;0.60;;;;;;;-3.07;100.00;99327.75;5093291;28;20026;-56
2024/01/18 02:01:04;;;;;;;0.50;0.50;;;;;;;-3.08;100.00;99331.94;5093194;28;20427;-56
2024/01/18 02:03:29;;;;;;;0.50;0.50;;;;;;;-3.10;100.00;99325.06;5092206;28;20897;-56
2024/01/18 02:05:55;;;;;;;0.60;0.60;;;;;;;-3.15;100.00;99322.25;5093170;28;20040;-56
2024/01/18 02:08:22;;;;;;;0.52;0.52;;;;;;;-3.11;100.00;99324.19;5092616;28;20046;-56
2024/01/18 02:10:48;;;;;;;0.60;0.60;;;;;;;-3.10;100.00;99328.44;5092201;28;20024;-56
2024/01/18 02:13:14;;;;;;;0.50;0.50;;;;;;;-3.17;100.00;99328.88;5092749;28;20383;-56
2024/01/18 02:15:40;;;;;;;0.60;0.60;;;;;;;-3.10;100.00;99333.47;5092841;28;20036;-56
2024/01/18 02:18:05;;;;;;;0.60;0.60;;;;;;;-3.10;100.00;99328.44;5092158;28;20039;-58
2024/01/18 02:20:31;;;;;;;0.50;0.50;;;;;;;-3.08;100.00;99334.44;5092459;28;20134;-56
2024/01/18 02:22:57;;;;;;;0.50;0.50;;;;;;;-3.10;100.00;99333.47;5092757;28;20122;-56
2024/01/18 02:25:27;;;;;;;0.60;0.60;;;;;;;-3.20;100.00;99333.72;5091751;28;20027;-56
2024/01/18 02:27:57;;;;;;;0.60;0.60;;;;;;;-3.26;100.00;99333.38;5092863;28;20436;-57
2024/01/18 02:30:22;;;;;;;0.60;0.60;;;;;;;-3.05;100.00;99329.56;5092113;28;20024;-56
2024/01/18 02:32:48;;;;;;;0.60;0.60;;;;;;;-3.19;100.00;99327.91;5092025;28;20020;-56
2024/01/18 02:35:14;;;;;;;0.60;0.60;;;;;;;-3.23;100.00;99323.47;5092390;28;20414;-59
2024/01/18 02:37:40;;;;;;;0.60;0.60;;;;;;;-3.31;100.00;99323.84;5092814;28;20088;-56
2024/01/18 02:40:06;;;;;;;0.60;0.60;;;;;;;-3.36;100.00;99326.91;5091686;28;20028;-56
2024/01/18 02:42:32;;;;;;;0.70;0.70;;;;;;;-3.34;100.00;99333.75;5092239;28;20067;-56
2024/01/18 02:44:57;;;;;;;0.60;0.60;;;;;;;-3.31;100.00;99338.13;5092696;28;20105;-59
2024/01/18 02:47:27;;;;;;;0.70;0.70;;;;;;;-3.36;100.00;99334.44;5091587;28;20086;-58
2024/01/18 02:49:52;;;;;;;0.70;0.70;;;;;;;-3.36;100.00;99329.41;5092584;28;20052;-55
2024/01/18 02:52:18;;;;;;;0.70;0.70;;;;;;;-3.39;100.00;99336.78;5092405;28;20533;-58
2024/01/18 02:54:43;;;;;;;0.60;0.60;;;;;;;-3.35;100.00;99341.22;5092954;28;20016;-58
2024/01/18 02:57:08;;;;;;;0.60;0.60;;;;;;;-3.43;100.00;99338.25;5096662;28;20529;-58
2024/01/18 02:59:34;;;;;;;0.50;0.50;;;;;;;-3.36;100.00;99347.91;5095422;28;20036;-58
2024/01/18 03:01:59;;;;;;;0.52;0.52;;;;;;;-3.42;100.00;99344.16;5096526;28;20398;-58
2024/01/18 03:04:24;;;;;;;0.60;0.60;;;;;;;-3.38;100.00;99338.50;5096011;28;20029;-57
2024/01/18 03:06:49;;;;;;;0.52;0.52;;;;;;;-3.36;100.00;99342.88;5095529;28;20533;-58
2024/01/18 03:09:15;;;;;;;0.55;0.55;;;;;;;-3.34;100.00;99342.97;5095738;28;20036;-57
2024/01/18 03:11:40;;;;;;;0.57;0.57;;;;;;;-3.31;100.00;99348.19;5096294;28;20023;-56
2024/01/18 03:14:05;;;;;;;0.60;0.60;;;;;;;-3.32;100.00;99342.28;5095538;28;20107;-56
2024/01/18 03:16:31;;;;;;;0.60;0.60;;;;;;;-3.20;100.00;99346.31;5095887;28;20159;-56
2024/01/18 03:18:57;;;;;;;0.57;0.57;;;;;;;-3.20;100.00;99349.72;5096069;28;20533;-56
2024/01/18 03:21:23;;;;;;;0.60;0.60;;;;;;;-3.37;100.00;99343.66;5094986;28;20032;-57
2024/01/18 03:23:48;;;;;;;0.63;0.63;;;;;;;-3.37;100.00;99342.78;5095941;28;20495;-57
2024/01/18 03:26:13;;;;;;;0.60;0.60;;;;;;;-3.35;100.00;99356.34;5095484;28;20375;-58
2024/01/18 03:28:38;;;;;;;0.60;0.60;;;;;;;-3.38;100.00;99357.03;5095158;28;20035;-58
2024/01/18 03:31:04;;;;;;;0.70;0.70;;;;;;;-3.39;100.00;99355.28;5095854;28;20099;-56
2024/01/18 03:33:29;;;;;;;0.60;0.60;;;;;;;-3.40;100.00;99356.06;5095375;28;20483;-56
2024/01/18 03:35:55;;;;;;;0.60;0.60;;;;;;;-3.40;100.00;99356.06;5095083;28;20024;-56
2024/01/18 03:38:20;;;;;;;0.55;0.55;;;;;;;-3.66;100.00;99367.91;5095381;28;20020;-56
2024/01/18 03:40:46;;;;;;;0.70;0.70;;;;;;;-3.74;100.00;99360.69;5095778;28;20380;-56
2024/01/18 03:43:12;;;;;;;0.60;0.60;;;;;;;-3.86;100.00;99361.66;5094460;28;20043;-56
2024/01/18 03:45:37;;;;;;;0.60;0.60;;;;;;;-3.95;100.00;99365.22;5094805;28;20043;-58
2024/01/18 03:48:03;;;;;;;0.60;0.60;;;;;;;-3.90;100.00;99366.38;5095470;28;20030;-58
2024/01/18 03:50:28;;;;;;;0.60;0.60;;;;;;;-3.93;100.00;99371.25;5094350;28;20035;-56
2024/01/18 03:52:53;;;;;;;0.70;0.70;;;;;;;-4.02;100.00;99377.41;5095500;28;20032;-56
2024/01/18 03:55:19;;;;;;;0.50;0.50;;;;;;;-3.97;100.00;99381.09;5095527;28;20024;-56
2024/01/18 03:57:44;;;;;;;0.65;0.65;;;;;;;-4.06;100.00;99384.69;5094768;28;20067;-56
2024/01/18 04:00:12;;;;;;;0.70;0.70;;;;;;;-4.15;100.00;99384.97;5094269;28;20379;-56
2024/01/18 04:02:37;;;;;;;0.70;0.70;;;;;;;-4.05;100.00;99384.78;5095307;28;20036;-56
2024/01/18 04:05:04;;;;;;;0.60;0.60;;;;;;;-4.03;100.00;99388.28;5094603;28;20051;-56
2024/01/18 04:07:30;;;;;;;0.60;0.60;;;;;;;-3.87;100.00;99390.13;5093400;28;20028;-56
2024/01/18 04:09:55;;;;;;;0.70;0.70;;;;;;;-3.83;100.00;99393.69;5094523;28;20024;-56
2024/01/18 04:12:20;;;;;;;0.70;0.70;;;;;;;-3.88;100.00;99392.53;5093728;28;20073;-56
2024/01/18 04:14:45;;;;;;;0.70;0.70;;;;;;;-3.93;100.00;99394.75;5095027;28;20025;-56
2024/01/18 04:17:11;;;;;;;0.70;0.70;;;;;;;-3.90;100.00;99391.56;5094104;28;20043;-56
2024/01/18 04:19:38;;;;;;;0.60;0.60;;;;;;;-3.91;100.00;99385.66;5095029;28;20032;-56
2024/01/18 04:22:03;;;;;;;0.60;0.60;;;;;;;-4.08;100.00;99384.59;5094783;28;20031;-56
2024/01/18 04:24:29;;;;;;;0.70;0.70;;;;;;;-4.19;100.00;99395.63;5093769;28;20032;-56
2024/01/18 04:26:54;;;;;;;0.65;0.65;;;;;;;-4.24;100.00;99395.31;5094936;28;20472;-58
2024/01/18 04:29:19;;;;;;;0.70;0.70;;;;;;;-4.27;100.00;99392.59;5094280;28;20029;-56
2024/01/18 04:31:44;;;;;;;0.70;0.70;;;;;;;-4.37;100.00;99396.16;5094002;28;20460;-56
2024/01/18 04:34:10;;;;;;;0.60;0.60;;;;;;;-4.43;100.00;99404.94;5094389;28;20122;-56
2024/01/18 04:36:35;;;;;;;0.60;0.60;;;;;;;-4.65;100.00;99411.94;5094562;28;20092;-56
2024/01/18 04:39:00;;;;;;;0.63;0.63;;;;;;;-4.87;100.00;99419.66;5093728;28;20019;-56
2024/01/18 04:41:26;;;;;;;0.65;0.65;;;;;;;-4.93;100.00;99416.75;5093896;28;20071;-56
2024/01/18 04:43:51;;;;;;;0.55;0.55;;;;;;;-5.06;100.00;99430.13;5094434;28;20024;-56
2024/01/18 04:46:16;;;;;;;0.60;0.60;;;;;;;-4.85;100.00;99422.31;5093229;28;20110;-56
2024/01/18 04:48:44;;;;;;;0.68;0.68;;;;;;;-5.11;100.00;99423.91;5094148;28;20024;-56
2024/01/18 04:51:09;;;;;;;0.60;0.60;;;;;;;-5.12;100.00;99430.56;5094060;28;20032;-56
2024/01/18 04:53:34;;;;;;;0.60;0.60;;;;;;;-5.21;100.00;99439.13;5093655;28;20085;-55
2024/01/18 04:56:00;;;;;;;0.70;0.70;;;;;;;-5.26;100.00;99445.47;5094463;28;20091;-58
2024/01/18 04:58:25;;;;;;;0.63;0.63;;;;;;;-5.22;100.00;99452.44;5093929;28;20502;-56
2024/01/18 05:00:50;;;;;;;0.60;0.60;;;;;;;-5.07;100.00;99458.53;5093402;28;20476;-58
2024/01/18 05:03:16;;;;;;;0.70;0.70;;;;;;;-5.11;100.00;99451.53;5093703;28;20106;-56
2024/01/18 05:05:41;;;;;;;0.70;0.70;;;;;;;-5.01;100.00;99458.94;5093881;28;20020;-56
2024/01/18 05:08:07;;;;;;;0.80;0.80;;;;;;;-4.96;100.00;99456.72;5093362;28;20413;-58
2024/01/18 05:10:32;;;;;;;0.73;0.73;;;;;;;-4.99;100.00;99464.06;5093851;28;20024;-58
2024/01/18 05:12:58;;;;;;;0.70;0.70;;;;;;;-5.25;100.00;99464.75;5093921;28;20110;-56
2024/01/18 05:15:25;;;;;;;0.90;0.90;;;;;;;-5.23;100.00;99460.72;5092410;28;20420;-56
2024/01/18 05:17:50;;;;;;;0.70;0.70;;;;;;;-5.35;100.00;99459.09;5092518;28;20103;-58
2024/01/18 05:20:16;;;;;;;0.70;0.70;;;;;;;-5.20;100.00;99460.94;5092339;28;20091;-58
2024/01/18 05:22:42;;;;;;;0.60;0.60;;;;;;;-5.38;100.00;99470.59;5093908;28;20028;-56
2024/01/18 05:25:08;;;;;;;0.70;0.70;;;;;;;-5.32;100.00;99469.38;5093753;28;20020;-56
2024/01/18 05:27:33;;;;;;;0.70;0.70;;;;;;;-5.58;100.00;99462.50;5092607;28;20081;-56
2024/01/18 05:29:59;;;;;;;0.68;0.68;;;;;;;-5.70;100.00;99467.53;5093734;28;20024;-56
2024/01/18 05:32:25;;;;;;;0.70;0.70;;;;;;;-5.82;100.00;99467.53;5092911;28;20024;-56
2024/01/18 05:34:51;;;;;;;0.70;0.70;;;;;;;-5.80;100.00;99470.13;5092857;28;20042;-56
2024/01/18 05:37:17;;;;;;;0.60;0.60;;;;;;;-5.68;100.00;99470.13;5092990;28;20081;-56
2024/01/18 05:39:42;;;;;;;0.70;0.70;;;;;;;-5.68;100.00;99480.16;5093571;28;20028;-56
2024/01/18 05:42:08;;;;;;;0.70;0.70;;;;;;;-5.64;100.00;99488.03;5092328;28;20039;-56
2024/01/18 05:44:33;;;;;;;0.80;0.80;;;;;;;-5.86;100.00;99487.25;5093002;28;20032;-56
2024/01/18 05:46:58;;;;;;;0.70;0.70;;;;;;;-5.74;100.00;99485.63;5093290;28;20024;-56
2024/01/18 05:49:24;;;;;;;0.50;0.50;;;;;;;-5.66;100.00;99494.56;5091959;28;20036;-56
2024/01/18 05:51:50;;;;;;;0.80;0.80;;;;;;;-5.81;100.00;99494.38;5093776;28;20058;-57
2024/01/18 05:54:15;;;;;;;0.70;0.70;;;;;;;-5.88;100.00;99496.31;5092763;28;20107;-56
2024/01/18 05:56:41;;;;;;;0.80;0.80;;;;;;;-5.91;100.00;99508.63;5092427;28;20111;-57
2024/01/18 05:59:06;;;;;;;0.70;0.70;;;;;;;-6.10;100.00;99512.31;5092936;28;20427;-56
2024/01/18 06:01:32;;;;;;;0.70;0.70;;;;;;;-5.86;100.00;99504.81;5092732;28;20055;-56
2024/01/18 06:03:57;;;;;;;0.70;0.70;;;;;;;-5.78;100.00;99516.28;5092025;28;20069;-56
2024/01/18 06:06:22;;;;;;;0.70;0.70;;;;;;;-5.85;100.00;99520.00;5092619;28;20068;-56
2024/01/18 06:08:48;;;;;;;0.65;0.65;;;;;;;-5.92;100.00;99515.28;5093000;28;20036;-56
2024/01/18 06:11:14;;;;;;;0.80;0.80;;;;;;;-5.79;100.00;99522.06;5092046;28;20024;-56
2024/01/18 06:13:40;;;;;;;0.70;0.70;;;;;;;-5.88;100.00;99531.44;5093014;28;20028;-57
2024/01/18 06:16:09;;;;;;;0.70;0.70;;;;;;;-5.82;100.00;99536.91;5092890;28;20087;-57
2024/01/18 06:18:35;;;;;;;0.70;0.70;;;;;;;-5.84;100.00;99536.78;5092050;28;20036;-56
2024/01/18 06:21:00;;;;;;;0.73;0.73;;;;;;;-5.87;100.00;99543.22;5092677;28;20031;-57
2024/01/18 06:23:26;;;;;;;0.70;0.70;;;;;;;-5.93;100.00;99537.75;5091878;28;20077;-57
2024/01/18 06:25:51;;;;;;;0.70;0.70;;;;;;;-5.89;100.00;99549.75;5092941;28;20431;-57
2024/01/18 06:28:16;;;;;;;0.77;0.77;;;;;;;-5.91;100.00;99546.25;5092460;28;20038;-57
2024/01/18 06:30:44;;;;;;;0.80;0.80;;;;;;;-5.91;100.00;99551.25;5094926;28;20464;-57
2024/01/18 06:33:10;;;;;;;0.77;0.77;;;;;;;-5.80;100.00;99560.47;5096878;28;20103;-56
2024/01/18 06:35:36;;;;;;;0.80;0.80;;;;;;;-5.99;100.00;99569.19;5096898;28;20024;-57
2024/01/18 06:38:01;;;;;;;0.70;0.70;;;;;;;-5.99;100.00;99574.22;5096478;28;20429;-57
2024/01/18 06:40:26;;;;;;;0.65;0.65;;;;;;;-6.01;100.00;99570.69;5096452;28;20012;-57
2024/01/18 06:42:51;;;;;;;0.70;0.70;;;;;;;-5.89;100.00;99582.38;5096557;28;20048;-57
2024/01/18 06:45:17;;;;;;;0.77;0.77;;;;;;;-6.11;100.00;99578.28;5095725;28;20058;-57
2024/01/18 06:47:42;;;;;;;0.60;0.60;;;;;;;-6.13;100.00;99579.84;5096597;28;20024;-56
2024/01/18 06:50:09;;;;;;;0.80;0.80;;;;;;;-6.15;100.00;99581.34;5096720;28;20452;-57
2024/01/18 06:52:36;;;;;;;0.80;0.80;;;;;;;-6.20;100.00;99588.50;5096045;28;20023;-57
2024/01/18 06:55:01;;;;;;;0.63;0.63;;;;;;;-6.29;100.00;99593.72;5096680;28;20106;-57
2024/01/18 06:57:26;;;;;;;0.80;0.80;;;;;;;-6.28;100.00;99587.91;5096362;28;20107;-57
2024/01/18 06:59:52;;;;;;;0.70;0.70;;;;;;;-6.19;100.00;99594.41;5095749;28;20491;-57
2024/01/18 07:02:17;;;;;;;0.70;0.70;;;;;;;-6.24;100.00;99600.72;5095711;28;20082;-57
2024/01/18 07:04:43;;;;;;;0.70;0.70;;;;;;;-6.24;100.00;99600.72;5096280;28;20049;-58
2024/01/18 07:07:08;;;;;;;0.70;0.70;;;;;;;-6.14;100.00;99601.50;5095652;28;20024;-57
2024/01/18 07:09:34;;;;;;;0.70;0.70;;;;;;;-6.16;100.00;99604.66;5096015;28;20017;-57
2024/01/18 07:12:01;;;;;;;0.73;0.73;;;;;;;-6.18;100.00;99608.69;5096155;28;20437;-57
2024/01/18 07:14:26;;;;;;;0.80;0.80;;;;;;;-6.13;100.00;99614.94;5095028;28;20027;-57
2024/01/18 07:16:51;;;;;;;0.63;0.63;;;;;;;-6.10;100.00;99617.66;5096042;28;20024;-57
2024/01/18 07:19:17;;;;;;;0.70;0.70;;;;;;;-6.23;100.00;99615.00;5095322;28;20027;-57
2024/01/18 07:21:42;;;;;;;0.70;0.70;;;;;;;-6.12;100.00;99616.66;5095394;28;20111;-57
2024/01/18 07:24:07;;;;;;;0.77;0.77;;;;;;;-6.24;100.00;99625.78;5095930;28;20024;-58
2024/01/18 07:26:32;;;;;;;0.70;0.70;;;;;;;-6.26;100.00;99632.31;5095723;28;20028;-57
2024/01/18 07:28:58;;;;;;;0.77;0.77;;;;;;;-6.27;100.00;99636.44;5094983;28;20107;-58
2024/01/18 07:31:23;;;;;;;0.80;0.80;;;;;;;-6.18;100.00;99638.78;5095383;28;20040;-58
2024/01/18 07:33:50;;;;;;;0.60;0.60;;;;;;;-6.53;100.00;99645.34;5094743;28;20026;-57
2024/01/18 07:36:16;;;;;;;0.50;0.50;;;;;;;-6.34;100.00;99650.16;5095378;28;20032;-58
2024/01/18 07:38:41;;;;;;;0.70;0.70;;;;;;;-6.40;100.00;99644.66;5095355;28;20030;-58
2024/01/18 07:41:07;;;;;;;0.60;0.60;;;;;;;-6.43;100.00;99653.56;5094540;28;20059;-58
2024/01/18 07:43:32;;;;;;;0.65;0.65;;;;;;;-6.32;100.00;99666.19;5095481;28;20031;-57
2024/01/18 07:45:57;;;;;;;0.65;0.65;;;;;;;-6.36;100.00;99663.34;5095497;28;20027;-58
2024/01/18 07:48:23;;;;;;;0.70;0.70;;;;;;;-6.77;100.00;99654.31;5094217;28;20031;-56
2024/01/18 07:50:48;;;;;;;0.80;0.80;;;;;;;-6.63;100.00;99653.75;5095658;28;20039;-58
2024/01/18 07:53:13;;;;;;;0.60;0.60;;;;;;;-6.54;100.00;99671.16;5095236;28;20422;-58
2024/01/18 07:55:38;;;;;;;0.80;0.80;;;;;;;-6.55;100.00;99676.91;5094640;28;20395;-58
2024/01/18 07:58:04;;;;;;;0.80;0.80;;;;;;;-6.75;100.00;99684.50;5095186;28;20024;-57
2024/01/18 08:00:30;;;;;;;0.80;0.80;;;;;;;-6.73;100.00;99683.88;5094725;28;20032;-57
2024/01/18 08:02:55;;;;;;;0.80;0.80;;;;;;;-6.71;100.00;99687.38;5094462;28;20028;-57
2024/01/18 08:05:21;;;;;;;0.70;0.70;;;;;;;-6.69;100.00;99697.53;5095129;28;20526;-57
2024/01/18 08:07:46;;;;;;;0.65;0.65;;;;;;;-6.63;100.00;99703.88;5095164;28;20357;-57
2024/01/18 08:10:11;;;;;;;0.80;0.80;;;;;;;-6.62;100.00;99702.28;5093511;28;20032;-57
2024/01/18 08:12:37;;;;;;;0.70;0.70;;;;;;;-6.54;100.00;99707.91;5095215;28;20420;-58
2024/01/18 08:15:03;;;;;;;0.70;0.70;;;;;;;-6.45;100.00;99706.97;5094966;28;20043;-58
2024/01/18 08:17:29;;;;;;;0.70;0.70;;;;;;;-6.64;100.00;99711.28;5092522;28;20562;-57
2024/01/18 08:19:54;;;;;;;0.80;0.80;;;;;;;-6.60;100.00;99709.91;5094964;28;20059;-57
2024/01/18 08:22:20;;;;;;;0.77;0.77;;;;;;;-6.59;100.00;99717.53;5094451;28;20024;-56
2024/01/18 08:24:46;;;;;;;0.63;0.63;;;;;;;-6.69;100.00;99720.94;5094143;28;20035;-58
2024/01/18 08:27:11;;;;;;;0.70;0.70;;;;;;;-6.64;100.00;99726.31;5093963;28;20097;-57
2024/01/18 08:29:37;;;;;;;0.80;0.80;;;;;;;-6.61;100.00;99726.56;5094584;28;20028;-57
2024/01/18 08:32:03;;;;;;;0.77;0.77;;;;;;;-6.53;100.00;99737.19;5093753;28;20028;-56
2024/01/18 08:34:28;;;;;;;0.80;0.80;;;;;;;-6.39;100.00;99734.16;5094230;28;20379;-57
2024/01/18 08:36:53;;;;;;;0.80;0.80;;;;;;;-6.28;100.00;99740.88;5094661;28;20023;-52
2024/01/18 08:39:19;;;;;;;0.73;0.73;;;;;;;-6.17;100.00;99741.72;5093661;28;20024;-56
2024/01/18 08:41:44;;;;;;;0.80;0.80;;;;;;;-6.00;100.00;99747.19;5094317;28;20051;-55
2024/01/18 08:44:10;;;;;;;0.70;0.70;;;;;;;-5.91;100.00;99747.88;5093447;28;20388;-58
2024/01/18 08:46:35;;;;;;;0.70;0.70;;;;;;;-5.75;100.00;99749.03;5094140;28;20027;-57
2024/01/18 08:49:00;;;;;;;0.70;0.70;;;;;;;-5.63;100.00;99760.00;5094144;28;20028;-57
2024/01/18 08:51:25;;;;;;;0.70;0.70;;;;;;;-5.54;100.00;99753.19;5093235;28;20089;-57
2024/01/18 08:53:51;;;;;;;0.63;0.63;;;;;;;-5.40;100.00;99751.69;5093081;28;20028;-58
2024/01/18 08:56:17;;;;;;;0.77;0.77;;;;;;;-5.32;100.00;99758.19;5093532;28;20028;-57
2024/01/18 08:58:43;;;;;;;0.63;0.63;;;;;;;-5.26;100.00;99771.97;5092923;28;20036;-57
2024/01/18 09:01:08;;;;;;;0.70;0.70;;;;;;;-5.15;100.00;99771.09;5092089;28;20024;-57
2024/01/18 09:03:34;;;;;;;0.70;0.70;;;;;;;-5.12;100.00;99783.91;5093591;28;20081;-57
2024/01/18 09:05:59;;;;;;;0.70;0.70;;;;;;;-5.04;100.00;99785.34;5093109;28;20020;-57
2024/01/18 09:08:24;;;;;;;0.70;0.70;;;;;;;-4.93;100.00;99788.66;5092315;28;20174;-57
2024/01/18 09:10:49;;;;;;;0.80;0.80;;;;;;;-4.88;100.00;99786.47;5093316;28;20032;-57
2024/01/18 09:13:15;;;;;;;0.80;0.80;;;;;;;-4.75;100.00;99798.31;5092288;28;20032;-57
2024/01/18 09:15:41;;;;;;;0.70;0.70;;;;;;;-4.67;100.00;99803.13;5093875;28;20024;-57
2024/01/18 09:18:07;;;;;;;0.70;0.70;;;;;;;-4.58;100.00;99802.03;5093922;28;20028;-57
2024/01/18 09:20:32;;;;;;;0.73;0.73;;;;;;;-4.43;100.00;99807.31;5092314;28;20027;-58
2024/01/18 09:22:58;;;;;;;0.70;0.70;;;;;;;-4.18;100.00;99805.81;5093789;28;20055;-59
2024/01/18 09:25:23;;;;;;;0.70;0.70;;;;;;;-3.91;100.00;99815.19;5093403;28;20471;-58
2024/01/18 09:27:48;;;;;;;0.70;0.70;;;;;;;-3.79;100.00;99818.59;5092860;28;20020;-58
2024/01/18 09:30:14;;;;;;;0.50;0.50;;;;;;;-3.59;100.00;99824.13;5093046;28;20088;-58
2024/01/18 09:32:39;;;;;;;0.60;0.60;;;;;;;-3.53;100.00;99829.59;5093006;28;20517;-57
2024/01/18 09:35:05;;;;;;;0.70;0.70;;;;;;;-3.46;100.00;99836.78;5092068;28;20039;-58
2024/01/18 09:37:31;;;;;;;0.65;0.65;;;;;;;-3.39;100.00;99848.19;5093234;28;20055;-58
2024/01/18 09:39:57;;;;;;;0.70;0.70;;;;;;;-3.20;100.00;99851.19;5093549;28;20069;-58
2024/01/18 09:42:27;;;;;;;0.50;0.50;;;;;;;-3.10;100.00;99855.19;5092126;28;20044;-58
2024/01/18 09:44:53;;;;;;;0.70;0.70;;;;;;;-2.95;100.00;99860.41;5093221;28;20039;-58
2024/01/18 09:47:18;;;;;;;0.60;0.60;;;;;;;-2.89;100.00;99868.41;5093110;28;20388;-58
2024/01/18 09:49:46;;;;;;;0.70;0.70;;;;;;;-2.81;100.00;99876.47;5092631;28;20464;-58
2024/01/18 09:52:12;;;;;;;0.50;0.50;;;;;;;-2.68;100.00;99879.03;5093045;28;20031;-58
2024/01/18 09:54:38;;;;;;;0.65;0.65;;;;;;;-2.54;100.00;99877.44;5092591;28;20107;-58
2024/01/18 09:57:07;;;;;;;0.70;0.70;;;;;;;-2.38;100.00;99893.59;5093132;28;20147;-58
2024/01/18 09:59:35;;;;;;;0.60;0.60;;;;;;;-2.05;100.00;99899.09;5092980;28;20034;-58
2024/01/18 10:02:01;;;;;;;;;;;;;;;-1.86;100.00;99903.66;5092719;28;20400;-58
2024/01/18 10:04:27;;;;;;;0.60;0.60;;;;;;;-1.59;100.00;99896.94;5092710;28;19981;-58
2024/01/18 10:06:53;;;;;;;0.70;0.70;;;;;;;-1.24;100.00;99904.97;5093087;28;20439;-58
2024/01/18 10:09:21;;;;;;;0.50;0.50;;;;;;;-0.95;100.00;99911.81;5092018;28;20020;-58
2024/01/18 10:11:46;;;;;;;0.50;0.50;;;;;;;-0.68;100.00;99915.09;5093043;28;20418;-58
2024/01/18 10:14:12;;;;;;;0.45;0.45;;;;;;;-0.53;100.00;99921.84;5092719;28;20078;-58
2024/01/18 10:16:40;;;;;;;0.52;0.52;;;;;;;-0.25;100.00;99923.47;5092381;28;20103;-58
2024/01/18 10:19:07;;;;;;;0.50;0.50;;;;;;;-0.20;100.00;99927.16;5093073;28;20024;-58
2024/01/18 10:21:34;;;;;;;0.57;0.57;;;;;;;0.01;100.00;99939.31;5092667;28;20021;-58
2024/01/18 10:24:01;;;;;;;0.50;0.50;;;;;;;0.09;100.00;99943.13;5091936;28;20446;-58
2024/01/18 10:26:34;;;;;;;0.40;0.40;;;;;;;0.25;100.00;99940.69;5092238;28;20020;-58
2024/01/18 10:28:59;;;;;;;0.50;0.50;;;;;;;0.29;100.00;99947.66;5092866;28;20085;-58
2024/01/18 10:31:25;;;;;;;0.43;0.43;;;;;;;0.38;100.00;99951.53;5091173;28;20040;-58
2024/01/18 10:33:51;;;;;;;0.40;0.40;;;;;;;0.41;100.00;99956.75;5092820;28;20104;-58
2024/01/18 10:36:17;;;;;;;0.40;0.40;;;;;;;0.54;100.00;99959.16;5092320;28;20414;-58
2024/01/18 10:38:42;;;;;;;0.50;0.50;;;;;;;0.62;100.00;99959.59;5091702;28;20054;-58
2024/01/18 10:41:08;;;;;;;0.47;0.47;;;;;;;0.58;100.00;99956.03;5092494;28;20073;-58
2024/01/18 10:43:35;;;;;;;0.40;0.40;;;;;;;0.61;100.00;99963.81;5092061;28;20065;-58
2024/01/18 10:46:01;;;;;;;0.45;0.45;;;;;;;0.61;100.00;99970.56;5092054;28;20032;-58
2024/01/18 10:48:29;;;;;;;0.43;0.43;;;;;;;0.75;100.00;99964.56;5092242;28;20024;-58
2024/01/18 10:50:56;;;;;;;0.40;0.40;;;;;;;0.85;100.00;99963.38;5091782;28;20154;-58
2024/01/18 10:53:26;;;;;;;0.50;0.50;;;;;;;0.97;100.00;99971.69;5092144;28;20161;-58
2024/01/18 10:55:52;;;;;;;0.40;0.40;;;;;;;1.03;100.00;99960.97;5092331;28;20028;-58
2024/01/18 10:58:18;;;;;;;0.50;0.50;;;;;;;1.12;100.00;99971.63;5091426;28;20047;-58
2024/01/18 11:00:46;;;;;;;0.40;0.40;;;;;;;1.38;100.00;99974.69;5092197;28;20495;-58
2024/01/18 11:03:13;;;;;;;0.40;0.40;;;;;;;1.64;100.00;99982.78;5092077;28;20032;-58
2024/01/18 11:05:41;;;;;;;0.40;0.40;;;;;;;1.86;100.00;99986.38;5091563;28;20081;-58
2024/01/18 11:08:07;;;;;;;0.40;0.40;;;;;;;1.83;100.00;99989.66;5092055;28;20031;-58
2024/01/18 11:10:34;;;;;;;0.40;0.40;;;;;;;1.94;100.00;99993.59;5091780;28;20041;-56
2024/01/18 11:13:00;;;;;;;0.50;0.50;;;;;;;2.05;100.00;99993.28;5091679;28;20066;-56
2024/01/18 11:15:26;;;;;;;0.30;0.30;;;;;;;2.24;100.00;100002.69;5092634;28;20101;-56
2024/01/18 11:17:51;;;;;;;0.50;0.50;;;;;;;2.27;100.00;99998.63;5096101;28;20417;-57
2024/01/18 11:20:18;;;;;;;0.30;0.30;;;;;;;2.51;100.00;100008.25;5094890;28;20372;-56